createdAt,value
2018-01-02T00:01:52.464Z,35.50
2018-01-02T00:04:25.382Z,35.60
2018-01-02T00:06:52.986Z,35.90
2018-01-02T00:09:20.617Z,35.60
2018-01-02T00:11:48.233Z,35.90
2018-01-02T00:14:15.849Z,35.90
2018-01-02T00:16:48.997Z,36.00
2018-01-02T00:19:16.613Z,36.10
2018-01-02T00:21:44.257Z,36.60
2018-01-02T00:24:12.625Z,38.60
2018-01-02T00:26:41.740Z,39.30
2018-01-02T00:29:13.353Z,39.20
2018-01-02T00:31:40.965Z,40.30
2018-01-02T00:34:08.604Z,41.90
2018-01-02T00:36:36.213Z,43.50
2018-01-02T00:39:03.841Z,42.80
2018-01-02T00:41:37.124Z,44.20
2018-01-02T00:44:04.741Z,44.10
2018-01-02T00:46:32.388Z,43.50
2018-01-02T00:48:59.992Z,42.60
2018-01-02T00:51:27.608Z,43.40
2018-01-02T00:54:00.898Z,42.40
2018-01-02T00:56:28.509Z,42.50
2018-01-02T00:58:56.253Z,42.10
2018-01-02T01:01:23.866Z,42.60
2018-01-02T01:03:51.473Z,42.70
2018-01-02T01:06:19.888Z,43.10
2018-01-02T01:08:47.513Z,43.10
2018-01-02T01:11:15.161Z,43.80
2018-01-02T01:13:42.773Z,45.30
2018-01-02T01:16:11.164Z,47.30
2018-01-02T01:18:38.805Z,47.30
2018-01-02T01:21:06.426Z,48.20
2018-01-02T01:23:34.845Z,51.40
2018-01-02T01:26:02.520Z,51.50
2018-01-02T01:28:30.128Z,52.90
2018-01-02T01:30:57.768Z,53.90
2018-01-02T01:33:25.376Z,55.50
2018-01-02T01:35:53.803Z,61.20
2018-01-02T01:38:21.408Z,61.20
2018-01-02T01:40:49.023Z,60.70
2018-01-02T01:43:17.425Z,65.50
2018-01-02T01:45:45.037Z,64.60
2018-01-02T01:48:13.456Z,67.50
2018-01-02T01:50:41.064Z,67.40
2018-01-02T01:53:08.675Z,62.60
2018-01-02T01:55:36.316Z,63.40
2018-01-02T01:58:03.925Z,64.70
2018-01-02T02:00:31.569Z,66.90
2018-01-02T02:02:59.185Z,66.30
2018-01-02T02:05:27.565Z,72.60
2018-01-02T02:07:55.197Z,72.60
2018-01-02T02:10:22.816Z,75.40
2018-01-02T02:12:50.464Z,71.50
2018-01-02T02:15:18.081Z,73.70
2018-01-02T02:17:45.697Z,72.20
2018-01-02T02:20:13.328Z,72.60
2018-01-02T02:22:41.711Z,76.40
2018-01-02T02:25:09.365Z,76.50
2018-01-02T02:27:36.973Z,83.00
2018-01-02T02:30:05.431Z,77.00
2018-01-02T02:32:33.170Z,77.50
2018-01-02T02:35:00.780Z,81.70
2018-01-02T02:37:28.426Z,80.20
2018-01-02T02:39:56.050Z,79.30
2018-01-02T02:42:23.665Z,78.40
2018-01-02T02:44:51.305Z,77.00
2018-01-02T02:47:18.932Z,76.50
2018-01-02T02:49:46.560Z,78.00
2018-01-02T02:52:14.180Z,72.90
2018-01-02T02:54:41.793Z,70.60
2018-01-02T02:57:09.442Z,67.30
2018-01-02T02:59:37.062Z,66.10
2018-01-02T03:02:04.702Z,65.60
2018-01-02T03:04:32.304Z,66.40
2018-01-02T03:07:00.718Z,63.50
2018-01-02T03:09:28.365Z,63.50
2018-01-02T03:11:56.005Z,65.60
2018-01-02T03:14:23.649Z,63.90
2018-01-02T03:16:51.323Z,62.60
2018-01-02T03:19:18.921Z,59.60
2018-01-02T03:21:46.570Z,61.90
2018-01-02T03:24:14.262Z,61.90
2018-01-02T03:26:41.905Z,65.50
2018-01-02T03:29:09.537Z,65.20
2018-01-02T03:31:37.148Z,65.10
2018-01-02T03:34:04.820Z,66.70
2018-01-02T03:36:32.431Z,67.80
2018-01-02T03:39:00.068Z,65.90
2018-01-02T03:41:27.667Z,62.10
2018-01-02T03:43:57.850Z,61.40
2018-01-02T03:46:25.509Z,61.80
2018-01-02T03:48:53.110Z,66.10
2018-01-02T03:51:21.521Z,65.70
2018-01-02T03:53:49.131Z,65.70
2018-01-02T03:56:16.740Z,65.50
2018-01-02T03:58:44.373Z,63.70
2018-01-02T04:01:12.005Z,67.10
2018-01-02T04:03:39.644Z,64.90
2018-01-02T04:06:07.256Z,67.90
2018-01-02T04:08:34.869Z,66.20
2018-01-02T04:11:02.528Z,66.10
2018-01-02T04:13:30.139Z,64.80
2018-01-02T04:15:57.781Z,66.10
2018-01-02T04:18:25.388Z,64.80
2018-01-02T04:20:53.008Z,65.00
2018-01-02T04:23:20.750Z,62.60
2018-01-02T04:25:48.362Z,62.30
2018-01-02T04:28:16.006Z,63.10
2018-01-02T04:30:43.615Z,62.90
2018-01-02T04:33:11.993Z,61.20
2018-01-02T04:35:39.628Z,61.10
2018-01-02T04:38:08.054Z,62.90
2018-01-02T04:40:35.696Z,62.90
2018-01-02T04:43:03.309Z,61.80
2018-01-02T04:45:30.921Z,61.30
2018-01-02T04:47:59.338Z,61.40
2018-01-02T04:50:26.951Z,61.30
2018-01-02T04:52:54.597Z,61.60
2018-01-02T04:55:22.202Z,62.20
2018-01-02T04:57:49.809Z,61.00
2018-01-02T05:00:17.444Z,63.20
2018-01-02T05:02:45.059Z,61.90
2018-01-02T05:05:13.461Z,61.10
2018-01-02T05:07:41.069Z,61.10
2018-01-02T05:10:09.444Z,60.60
2018-01-02T05:12:37.853Z,60.80
2018-01-02T05:15:05.452Z,60.80
2018-01-02T05:17:33.885Z,60.00
2018-01-02T05:20:01.509Z,59.90
2018-01-02T05:22:29.116Z,60.10
2018-01-02T05:24:57.521Z,59.40
2018-01-02T05:27:25.128Z,59.40
2018-01-02T05:29:52.771Z,60.80
2018-01-02T05:32:21.164Z,60.30
2018-01-02T05:34:48.778Z,60.30
2018-01-02T05:37:17.173Z,60.60
2018-01-02T05:39:44.781Z,60.70
2018-01-02T05:42:13.191Z,61.00
2018-01-02T05:44:40.792Z,61.00
2018-01-02T05:47:09.157Z,65.20
2018-01-02T05:49:37.561Z,65.10
2018-01-02T05:52:05.168Z,64.90
2018-01-02T05:54:33.602Z,74.70
2018-01-02T05:57:01.208Z,74.70
2018-01-02T05:59:28.820Z,77.80
2018-01-02T06:01:57.333Z,79.00
2018-01-02T06:04:25.868Z,79.00
2018-01-02T06:06:53.505Z,79.70
2018-01-02T06:09:21.877Z,76.10
2018-01-02T06:11:50.250Z,74.10
2018-01-02T06:14:17.895Z,74.00
2018-01-02T06:16:45.505Z,70.60
2018-01-02T06:19:13.145Z,71.00
2018-01-02T06:21:40.750Z,70.90
2018-01-02T06:24:08.356Z,71.30
2018-01-02T06:26:36.768Z,70.80
2018-01-02T06:29:04.377Z,70.70
2018-01-02T06:31:32.009Z,71.60
2018-01-02T06:34:00.385Z,72.90
2018-01-02T06:36:27.993Z,72.10
2018-01-02T06:38:55.789Z,72.10
2018-01-02T06:41:23.404Z,70.50
2018-01-02T06:43:51.061Z,72.20
2018-01-02T06:46:19.436Z,72.30
2018-01-02T06:48:47.851Z,74.10
2018-01-02T06:51:15.529Z,74.20
2018-01-02T06:53:43.142Z,74.30
2018-01-02T06:56:10.782Z,75.50
2018-01-02T06:58:38.386Z,76.10
2018-01-02T07:01:06.757Z,76.40
2018-01-02T07:03:34.404Z,76.40
2018-01-02T07:06:02.024Z,77.30
2018-01-02T07:08:29.665Z,77.50
2018-01-02T07:10:57.289Z,77.50
2018-01-02T07:13:24.909Z,80.80
2018-01-02T07:15:52.557Z,84.30
2018-01-02T07:18:20.188Z,87.10
2018-01-02T07:20:47.836Z,89.00
2018-01-02T07:23:15.445Z,90.60
2018-01-02T07:25:43.065Z,91.60
2018-01-02T07:28:10.708Z,92.50
2018-01-02T07:30:38.323Z,93.70
2018-01-02T07:33:05.986Z,93.70
2018-01-02T07:35:33.670Z,93.80
2018-01-02T07:38:01.286Z,93.50
2018-01-02T07:40:29.067Z,93.60
2018-01-02T07:42:56.695Z,92.90
2018-01-02T07:45:24.339Z,93.20
2018-01-02T07:47:51.969Z,92.30
2018-01-02T07:50:19.577Z,93.00
2018-01-02T07:52:47.995Z,91.60
2018-01-02T07:55:15.614Z,91.50
2018-01-02T07:57:43.264Z,92.30
2018-01-02T08:00:10.925Z,92.40
2018-01-02T08:02:38.534Z,92.60
2018-01-02T08:05:06.182Z,92.50
2018-01-02T08:07:33.801Z,91.80
2018-01-02T08:10:01.545Z,92.30
2018-01-02T08:12:29.226Z,91.60
2018-01-02T08:14:56.912Z,90.60
2018-01-02T08:17:24.555Z,91.80
2018-01-02T08:19:52.167Z,92.90
2018-01-02T08:22:19.818Z,92.40
2018-01-02T08:24:47.470Z,91.50
2018-01-02T08:27:15.077Z,91.60
2018-01-02T08:29:42.737Z,90.70
2018-01-02T08:32:11.553Z,91.00
2018-01-02T08:34:39.234Z,90.90
2018-01-02T08:37:06.850Z,90.20
2018-01-02T08:39:34.453Z,90.90
2018-01-02T08:42:03.217Z,91.50
2018-01-02T08:44:31.591Z,91.50
2018-01-02T08:46:59.998Z,91.10
2018-01-02T08:49:27.653Z,91.10
2018-01-02T08:51:55.361Z,91.80
2018-01-02T08:54:23.003Z,92.70
2018-01-02T08:56:51.377Z,92.80
2018-01-02T08:59:19.121Z,92.80
2018-01-02T09:01:47.038Z,94.60
2018-01-02T09:04:14.650Z,95.20
2018-01-02T09:06:42.301Z,96.00
2018-01-02T09:09:09.926Z,97.00
2018-01-02T09:11:37.564Z,98.10
2018-01-02T09:14:11.007Z,99.00
2018-01-02T09:16:38.658Z,99.70
2018-01-02T09:19:07.061Z,99.90
2018-01-02T09:21:34.686Z,99.90
2018-01-02T09:24:03.091Z,99.90
2018-01-02T09:26:30.724Z,99.90
2018-01-02T09:28:58.375Z,99.90
2018-01-02T09:31:25.981Z,99.90
2018-01-02T09:33:54.375Z,99.90
2018-01-02T09:36:22.019Z,99.90
2018-01-02T09:38:49.625Z,99.90
2018-01-02T09:41:17.274Z,99.90
2018-01-02T09:43:44.895Z,99.90
2018-01-02T09:46:12.511Z,99.90
2018-01-02T09:48:40.171Z,99.90
2018-01-02T09:51:08.040Z,99.90
2018-01-02T09:53:35.749Z,99.90
2018-01-02T09:56:03.377Z,99.90
2018-01-02T09:58:31.761Z,99.90
2018-01-02T10:00:59.399Z,99.90
2018-01-02T10:03:27.034Z,99.90
2018-01-02T10:05:55.440Z,99.90
2018-01-02T10:08:23.074Z,99.90
2018-01-02T10:10:50.690Z,99.90
2018-01-02T10:13:19.109Z,99.30
2018-01-02T10:15:46.774Z,99.30
2018-01-02T10:18:14.541Z,99.80
2018-01-02T10:20:42.193Z,99.90
2018-01-02T10:23:10.574Z,99.10
2018-01-02T10:25:38.216Z,98.90
2018-01-02T10:28:05.845Z,98.80
2018-01-02T10:30:34.278Z,99.10
2018-01-02T10:33:01.890Z,99.10
2018-01-02T10:35:29.550Z,98.50
2018-01-02T10:37:57.304Z,98.80
2018-01-02T10:40:24.974Z,99.00
2018-01-02T10:42:52.977Z,99.60
2018-01-02T10:45:20.602Z,98.40
2018-01-02T10:47:49.015Z,97.80
2018-01-02T10:50:16.703Z,97.80
2018-01-02T10:52:45.151Z,97.70
2018-01-02T10:55:12.814Z,97.60
2018-01-02T10:57:40.445Z,97.80
2018-01-02T11:00:08.055Z,97.50
2018-01-02T11:02:35.723Z,97.50
2018-01-02T11:05:03.331Z,97.50
2018-01-02T11:07:30.999Z,97.60
2018-01-02T11:09:58.605Z,99.00
2018-01-02T11:12:32.609Z,99.30
2018-01-02T11:15:00.986Z,99.70
2018-01-02T11:17:28.698Z,99.60
2018-01-02T11:19:56.472Z,99.90
2018-01-02T11:22:24.169Z,99.90
2018-01-02T11:24:51.842Z,99.90
2018-01-02T11:27:19.453Z,99.90
2018-01-02T11:29:47.066Z,99.90
2018-01-02T11:32:15.498Z,99.90
2018-01-02T11:34:43.152Z,99.90
2018-01-02T11:37:10.800Z,99.90
2018-01-02T11:39:38.461Z,99.90
2018-01-02T11:42:06.892Z,99.90
2018-01-02T11:44:34.630Z,99.90
2018-01-02T11:47:02.277Z,99.90
2018-01-02T11:49:29.957Z,99.90
2018-01-02T11:51:58.372Z,99.90
2018-01-02T11:57:29.356Z,99.90
2018-01-02T11:59:57.770Z,99.90
2018-01-02T12:02:25.479Z,99.90
2018-01-02T12:04:53.089Z,99.90
2018-01-02T12:07:21.470Z,99.90
2018-01-02T12:09:49.101Z,99.90
2018-01-02T12:12:16.705Z,99.30
2018-01-02T12:14:44.350Z,99.50
2018-01-02T12:17:11.957Z,96.80
2018-01-02T12:19:39.577Z,97.30
2018-01-02T12:22:07.231Z,98.00
2018-01-02T12:24:35.635Z,96.80
2018-01-02T12:27:03.281Z,96.80
2018-01-02T12:29:30.893Z,96.70
2018-01-02T12:31:58.497Z,96.20
2018-01-02T12:34:26.137Z,95.70
2018-01-02T12:36:53.770Z,95.20
2018-01-02T12:39:21.421Z,95.40
2018-01-02T12:41:49.046Z,96.10
2018-01-02T12:44:17.432Z,95.40
2018-01-02T12:46:45.832Z,95.80
2018-01-02T12:49:13.447Z,95.70
2018-01-02T12:51:41.098Z,94.80
2018-01-02T12:54:08.709Z,93.20
2018-01-02T12:56:36.313Z,94.10
2018-01-02T12:59:04.723Z,93.30
2018-01-02T13:01:32.344Z,93.30
2018-01-02T13:03:59.997Z,93.40
2018-01-02T13:06:27.612Z,92.80
2018-01-02T13:08:55.236Z,93.20
2018-01-02T13:11:22.905Z,91.90
2018-01-02T13:13:50.518Z,92.10
2018-01-02T13:16:18.174Z,92.20
2018-01-02T13:18:45.797Z,92.60
2018-01-02T13:21:14.169Z,90.70
2018-01-02T13:23:41.805Z,90.70
2018-01-02T13:26:09.421Z,90.60
2018-01-02T13:28:37.117Z,89.90
2018-01-02T13:31:04.757Z,91.00
2018-01-02T13:33:32.378Z,90.70
2018-01-02T13:36:00.040Z,91.10
2018-01-02T13:38:28.412Z,90.80
2018-01-02T13:40:56.067Z,90.80
2018-01-02T13:43:23.684Z,90.50
2018-01-02T13:45:52.068Z,90.00
2018-01-02T13:48:20.476Z,89.20
2018-01-02T13:50:48.108Z,89.10
2018-01-02T13:53:15.773Z,89.30
2018-01-02T13:55:43.397Z,90.20
2018-01-02T13:58:11.013Z,90.10
2018-01-02T14:00:38.654Z,88.80
2018-01-02T14:03:06.265Z,87.10
2018-01-02T14:05:33.918Z,86.70
2018-01-02T14:08:01.528Z,87.20
2018-01-02T14:10:29.149Z,87.90
2018-01-02T14:12:56.792Z,86.90
2018-01-02T14:15:25.169Z,87.50
2018-01-02T14:17:52.817Z,87.40
2018-01-02T14:20:20.429Z,86.80
2018-01-02T14:22:48.060Z,86.70
2018-01-02T14:25:15.717Z,87.10
2018-01-02T14:27:43.334Z,87.20
2018-01-02T14:30:10.973Z,87.10
2018-01-02T14:32:38.578Z,86.70
2018-01-02T14:35:06.208Z,87.70
2018-01-02T14:37:33.853Z,86.70
2018-01-02T14:40:02.233Z,87.10
2018-01-02T14:42:29.889Z,87.00
2018-01-02T14:44:57.502Z,86.30
2018-01-02T14:47:25.882Z,86.30
2018-01-02T14:49:54.291Z,85.90
2018-01-02T14:52:21.903Z,85.90
2018-01-02T14:54:49.541Z,85.40
2018-01-02T14:57:17.165Z,86.00
2018-01-02T14:59:44.775Z,85.40
2018-01-02T15:02:13.189Z,86.30
2018-01-02T15:04:40.803Z,86.30
2018-01-02T15:07:08.454Z,85.00
2018-01-02T15:09:36.070Z,84.90
2018-01-02T15:12:03.717Z,85.60
2018-01-02T15:14:31.379Z,84.50
2018-01-02T15:16:59.026Z,85.20
2018-01-02T15:19:26.669Z,84.80
2018-01-02T15:21:54.525Z,85.50
2018-01-02T15:24:23.064Z,84.70
2018-01-02T15:26:56.642Z,84.70
2018-01-02T15:29:24.246Z,84.70
2018-01-02T15:31:52.656Z,83.50
2018-01-02T15:34:20.413Z,83.50
2018-01-02T15:36:48.800Z,83.40
2018-01-02T15:39:17.841Z,83.40
2018-01-02T15:41:45.460Z,84.30
2018-01-02T15:44:13.119Z,83.80
2018-01-02T15:46:41.501Z,84.00
2018-01-02T15:49:09.101Z,82.90
2018-01-02T15:51:37.683Z,83.70
2018-01-02T15:54:06.109Z,84.60
2018-01-02T15:56:35.453Z,84.60
2018-01-02T15:59:04.031Z,84.50
2018-01-02T16:01:31.633Z,84.00
2018-01-02T16:04:00.174Z,84.50
2018-01-02T16:06:27.998Z,84.60
2018-01-02T16:08:56.631Z,84.30
2018-01-02T16:11:25.223Z,84.80
2018-01-02T16:13:52.890Z,84.70
2018-01-02T16:16:20.545Z,84.90
2018-01-02T16:18:48.149Z,84.80
2018-01-02T16:21:15.789Z,84.60
2018-01-02T16:23:43.403Z,84.30
2018-01-02T16:26:11.041Z,83.90
2018-01-02T16:28:38.694Z,84.10
2018-01-02T16:31:07.072Z,84.70
2018-01-02T16:33:34.749Z,84.70
2018-01-02T16:36:03.162Z,85.10
2018-01-02T16:38:30.801Z,85.00
2018-01-02T16:40:58.480Z,84.80
2018-01-02T16:43:26.100Z,84.80
2018-01-02T16:45:53.745Z,84.80
2018-01-02T16:48:22.126Z,84.90
2018-01-02T16:50:49.765Z,84.80
2018-01-02T16:53:17.412Z,85.10
2018-01-02T16:55:45.034Z,85.30
2018-01-02T16:58:12.686Z,85.50
2018-01-02T17:00:40.330Z,85.40
2018-01-02T17:03:07.941Z,84.80
2018-01-02T17:05:35.585Z,84.90
2018-01-02T17:08:03.902Z,85.00
2018-01-02T17:10:31.541Z,85.30
2018-01-02T17:12:59.174Z,85.40
2018-01-02T17:15:26.793Z,85.40
2018-01-02T17:17:54.465Z,84.90
2018-01-02T17:20:22.078Z,85.70
2018-01-02T17:22:49.741Z,85.80
2018-01-02T17:25:17.365Z,86.70
2018-01-02T17:27:45.745Z,86.60
2018-01-02T17:30:13.386Z,86.60
2018-01-02T17:32:41.019Z,85.80
2018-01-02T17:35:08.671Z,85.40
2018-01-02T17:37:37.062Z,86.10
2018-01-02T17:40:05.458Z,85.80
2018-01-02T17:42:33.892Z,85.70
2018-01-02T17:45:01.523Z,85.70
2018-01-02T17:47:30.114Z,85.40
2018-01-02T17:49:57.814Z,85.40
2018-01-02T17:52:25.442Z,86.10
2018-01-02T17:54:53.106Z,85.60
2018-01-02T17:57:20.741Z,85.40
2018-01-02T17:59:48.414Z,85.50
2018-01-02T18:02:16.036Z,85.40
2018-01-02T18:04:43.825Z,85.60
2018-01-02T18:07:11.597Z,85.40
2018-01-02T18:09:39.225Z,85.50
2018-01-02T18:12:06.908Z,85.20
2018-01-02T18:14:34.531Z,85.80
2018-01-02T18:17:02.154Z,85.50
2018-01-02T18:19:30.057Z,85.40
2018-01-02T18:21:57.670Z,85.20
2018-01-02T18:24:25.357Z,85.30
2018-01-02T18:26:52.946Z,86.00
2018-01-02T18:29:20.950Z,86.20
2018-01-02T18:31:48.593Z,86.40
2018-01-02T18:34:16.995Z,87.60
2018-01-02T18:36:44.633Z,87.60
2018-01-02T18:39:12.278Z,87.20
2018-01-02T18:41:39.922Z,87.20
2018-01-02T18:44:07.622Z,87.10
2018-01-02T18:46:35.254Z,86.90
2018-01-02T18:49:02.951Z,86.50
2018-01-02T18:51:30.558Z,86.80
2018-01-02T18:53:58.192Z,86.90
2018-01-02T18:56:25.857Z,87.20
2018-01-02T18:58:53.466Z,87.80
2018-01-02T19:01:21.149Z,88.40
2018-01-02T19:03:48.773Z,88.50
2018-01-02T19:06:17.189Z,88.60
2018-01-02T19:08:44.830Z,88.60
2018-01-02T19:11:13.216Z,89.10
2018-01-02T19:13:40.893Z,89.10
2018-01-02T19:16:08.508Z,88.90
2018-01-02T19:18:36.122Z,89.50
2018-01-02T19:21:03.782Z,89.60
2018-01-02T19:23:31.395Z,89.80
2018-01-02T19:25:59.809Z,89.20
2018-01-02T19:28:27.413Z,89.10
2018-01-02T19:30:55.030Z,89.00
2018-01-02T19:33:23.433Z,88.90
2018-01-02T19:35:51.076Z,88.50
2018-01-02T19:38:18.724Z,89.20
2018-01-02T19:40:46.330Z,88.30
2018-01-02T19:43:13.942Z,87.60
2018-01-02T19:45:41.589Z,87.30
2018-01-02T19:48:09.205Z,87.00
2018-01-02T19:50:36.854Z,87.80
2018-01-02T19:53:05.242Z,87.10
2018-01-02T19:55:33.629Z,87.30
2018-01-02T19:58:02.055Z,86.90
2018-01-02T20:00:29.662Z,86.80
2018-01-02T20:02:57.321Z,87.10
2018-01-02T20:05:24.940Z,86.50
2018-01-02T20:07:53.327Z,87.10
2018-01-02T20:10:21.048Z,87.10
2018-01-02T20:12:48.674Z,87.30
2018-01-02T20:15:16.326Z,87.40
2018-01-02T20:17:43.935Z,88.30
2018-01-02T20:20:12.337Z,88.20
2018-01-02T20:22:40.034Z,88.20
2018-01-02T20:25:07.674Z,88.00
2018-01-02T20:27:35.333Z,87.00
2018-01-02T20:30:02.967Z,86.80
2018-01-02T20:32:30.603Z,86.40
2018-01-02T20:34:59.038Z,85.10
2018-01-02T20:37:26.660Z,85.10
2018-01-02T20:39:55.073Z,84.20
2018-01-02T20:42:22.688Z,84.20
2018-01-02T20:44:50.314Z,84.10
2018-01-02T20:47:17.966Z,83.80
2018-01-02T20:49:45.588Z,82.60
2018-01-02T20:52:13.244Z,82.80
2018-01-02T20:54:40.984Z,83.30
2018-01-02T20:57:08.606Z,82.90
2018-01-02T20:59:36.258Z,83.30
2018-01-02T21:02:03.932Z,83.80
2018-01-02T21:04:31.642Z,84.20
2018-01-02T21:06:59.266Z,83.90
2018-01-02T21:09:26.894Z,83.80
2018-01-02T21:11:54.550Z,83.60
2018-01-02T21:14:22.252Z,84.20
2018-01-02T21:16:49.897Z,83.70
2018-01-02T21:19:17.506Z,83.50
2018-01-02T21:21:45.132Z,83.30
2018-01-02T21:24:13.550Z,83.80
2018-01-02T21:26:41.157Z,83.60
2018-01-02T21:29:08.813Z,84.00
2018-01-02T21:31:36.433Z,83.80
2018-01-02T21:34:04.814Z,83.30
2018-01-02T21:36:32.590Z,83.30
2018-01-02T21:39:00.296Z,83.50
2018-01-02T21:41:27.986Z,82.90
2018-01-02T21:43:55.605Z,82.70
2018-01-02T21:46:23.863Z,82.60
2018-01-02T21:48:51.586Z,82.30
2018-01-02T21:51:19.969Z,83.40
2018-01-02T21:53:47.626Z,82.50
2018-01-02T21:56:15.251Z,82.20
2018-01-02T21:58:42.864Z,82.60
2018-01-02T22:01:10.512Z,83.10
2018-01-02T22:03:38.142Z,82.30
2018-01-02T22:06:05.786Z,83.10
2018-01-02T22:08:33.397Z,83.50
2018-01-02T22:11:01.039Z,84.30
2018-01-02T22:13:28.691Z,83.60
2018-01-02T22:15:56.320Z,83.60
2018-01-02T22:18:24.757Z,82.50
2018-01-02T22:20:52.385Z,82.40
2018-01-02T22:23:20.001Z,82.30
2018-01-02T22:25:47.650Z,82.10
2018-01-02T22:28:16.042Z,81.90
2018-01-02T22:30:44.458Z,81.90
2018-01-02T22:33:12.072Z,81.90
2018-01-02T22:35:39.674Z,81.60
2018-01-02T22:38:08.086Z,82.00
2018-01-02T22:40:35.689Z,82.00
2018-01-02T22:43:03.324Z,82.30
2018-01-02T22:45:30.994Z,82.40
2018-01-02T22:47:59.378Z,83.90
2018-01-02T22:50:27.794Z,84.00
2018-01-02T22:52:55.445Z,84.10
2018-01-02T22:55:23.201Z,84.60
2018-01-02T22:57:51.601Z,85.80
2018-01-02T23:00:19.241Z,85.70
2018-01-02T23:02:46.858Z,85.50
2018-01-02T23:05:15.231Z,85.50
2018-01-02T23:07:44.326Z,85.40
2018-01-02T23:10:11.943Z,86.00
2018-01-02T23:12:39.560Z,85.70
2018-01-02T23:15:07.211Z,85.40
2018-01-02T23:17:34.813Z,85.60
2018-01-02T23:20:02.445Z,84.90
2018-01-02T23:22:30.089Z,84.00
2018-01-02T23:24:57.698Z,83.30
2018-01-02T23:27:25.357Z,82.90
2018-01-02T23:29:53.014Z,82.90
2018-01-02T23:32:20.638Z,82.60
2018-01-02T23:34:48.293Z,82.30
2018-01-02T23:37:15.913Z,81.70
2018-01-02T23:39:43.570Z,80.90
2018-01-02T23:42:11.190Z,79.90
2018-01-02T23:44:38.823Z,79.60
2018-01-02T23:47:06.485Z,79.30
2018-01-02T23:49:34.104Z,77.70
2018-01-02T23:52:01.757Z,77.70
2018-01-02T23:54:29.394Z,77.10
2018-01-02T23:56:57.018Z,77.00
2018-01-02T23:59:24.660Z,76.70
